createdAt,value
2022-09-25T00:01:25.987Z,100.40
2022-09-25T00:03:54.714Z,101.93
2022-09-25T00:06:24.977Z,106.40
2022-09-25T00:08:52.980Z,98.32
2022-09-25T00:11:33.930Z,104.38
2022-09-25T00:14:03.249Z,96.50
2022-09-25T00:16:33.114Z,93.75
2022-09-25T00:19:19.839Z,94.93
2022-09-25T00:21:52.963Z,93.97
2022-09-25T00:24:22.294Z,87.23
2022-09-25T00:26:50.403Z,92.15
2022-09-25T00:29:20.543Z,92.95
2022-09-25T00:31:48.269Z,88.82
2022-09-25T00:34:16.111Z,93.80
2022-09-25T00:36:43.806Z,90.68
2022-09-25T00:39:12.103Z,88.95
2022-09-25T00:41:39.853Z,99.20
2022-09-25T00:44:47.667Z,91.72
2022-09-25T00:47:24.520Z,87.30
2022-09-25T00:49:54.982Z,81.78
2022-09-25T00:52:24.109Z,83.90
2022-09-25T00:54:59.006Z,78.93
2022-09-25T00:57:31.113Z,82.07
2022-09-25T01:00:07.982Z,84.88
2022-09-25T01:02:43.900Z,86.10
2022-09-25T01:05:16.893Z,78.72
2022-09-25T01:07:47.713Z,82.57
2022-09-25T01:10:17.304Z,81.65
2022-09-25T01:12:48.556Z,78.07
2022-09-25T01:15:28.243Z,82.55
2022-09-25T01:18:23.078Z,82.57
2022-09-25T01:21:14.161Z,86.53
2022-09-25T01:23:47.630Z,81.05
2022-09-25T01:26:24.653Z,79.68
2022-09-25T01:29:19.465Z,88.63
2022-09-25T01:32:20.851Z,81.88
2022-09-25T01:34:51.553Z,82.55
2022-09-25T01:37:29.926Z,82.72
2022-09-25T01:40:26.449Z,83.53
2022-09-25T01:43:06.307Z,82.25
2022-09-25T01:45:56.067Z,85.10
2022-09-25T01:48:27.780Z,78.03
2022-09-25T01:51:18.839Z,77.63
2022-09-25T01:53:52.094Z,82.85
2022-09-25T01:56:22.834Z,76.22
2022-09-25T01:58:56.892Z,83.72
2022-09-25T02:01:30.326Z,86.82
2022-09-25T02:04:10.703Z,82.25
2022-09-25T02:06:43.554Z,83.53
2022-09-25T02:09:17.837Z,81.30
2022-09-25T02:11:50.562Z,76.50
2022-09-25T02:14:27.199Z,81.07
2022-09-25T02:16:58.244Z,84.47
2022-09-25T02:19:45.513Z,83.28
2022-09-25T02:22:20.753Z,78.65
2022-09-25T02:25:00.606Z,78.53
2022-09-25T02:27:29.488Z,78.07
2022-09-25T02:29:58.549Z,74.65
2022-09-25T02:32:33.620Z,75.28
2022-09-25T02:35:01.729Z,74.15
2022-09-25T02:37:29.984Z,68.75
2022-09-25T02:40:02.170Z,70.00
2022-09-25T02:42:55.785Z,66.57
2022-09-25T02:45:53.293Z,64.75
2022-09-25T02:48:24.198Z,70.60
2022-09-25T02:51:35.734Z,71.15
2022-09-25T02:54:18.601Z,72.20
2022-09-25T02:57:04.009Z,66.00
2022-09-25T02:59:55.963Z,70.38
2022-09-25T03:02:25.923Z,66.72
2022-09-25T03:04:55.384Z,69.78
2022-09-25T03:07:23.359Z,71.30
2022-09-25T03:09:54.014Z,70.18
2022-09-25T03:12:21.826Z,72.28
2022-09-25T03:14:49.564Z,69.97
2022-09-25T03:17:17.629Z,70.65
2022-09-25T03:19:45.475Z,66.88
2022-09-25T03:22:16.139Z,68.28
2022-09-25T03:24:43.763Z,68.50
2022-09-25T03:27:11.586Z,67.38
2022-09-25T03:29:39.113Z,67.82
2022-09-25T03:32:06.705Z,70.43
2022-09-25T03:34:34.897Z,66.97
2022-09-25T03:37:02.479Z,66.95
2022-09-25T03:39:30.076Z,65.22
2022-09-25T03:41:57.887Z,71.28
2022-09-25T03:44:25.518Z,69.32
2022-09-25T03:46:53.133Z,67.65
2022-09-25T03:49:21.037Z,69.43
2022-09-25T03:51:48.677Z,62.35
2022-09-25T03:54:16.362Z,68.72
2022-09-25T03:56:44.253Z,60.45
2022-09-25T03:59:11.871Z,64.72
2022-09-25T04:01:40.561Z,68.22
2022-09-25T04:04:08.403Z,71.13
2022-09-25T04:06:36.368Z,62.97
2022-09-25T04:09:04.079Z,62.13
2022-09-25T04:11:31.969Z,64.35
2022-09-25T04:13:59.491Z,62.30
2022-09-25T04:16:28.081Z,58.08
2022-09-25T04:18:56.014Z,60.28
2022-09-25T04:21:23.778Z,58.75
2022-09-25T04:24:09.768Z,56.30
2022-09-25T04:26:37.664Z,56.75
2022-09-25T04:29:06.079Z,62.80
2022-09-25T04:31:33.866Z,60.33
2022-09-25T04:34:02.170Z,62.42
2022-09-25T04:36:29.715Z,63.30
2022-09-25T04:38:57.340Z,60.50
2022-09-25T04:41:25.163Z,63.30
2022-09-25T04:43:52.854Z,61.25
2022-09-25T04:46:22.689Z,59.83
2022-09-25T04:48:51.293Z,62.45
2022-09-25T04:51:19.166Z,60.83
2022-09-25T04:53:47.306Z,64.38
2022-09-25T04:56:16.785Z,59.67
2022-09-25T04:58:49.696Z,58.63
2022-09-25T05:01:20.483Z,63.17
2022-09-25T05:03:54.203Z,58.13
2022-09-25T05:06:23.003Z,56.35
2022-09-25T05:08:50.643Z,61.55
2022-09-25T05:11:18.664Z,58.42
2022-09-25T05:13:51.366Z,62.60
2022-09-25T05:16:20.429Z,55.95
2022-09-25T05:18:48.718Z,65.75
2022-09-25T05:21:16.510Z,61.72
2022-09-25T05:23:44.084Z,61.80
2022-09-25T05:26:11.942Z,65.35
2022-09-25T05:28:39.582Z,58.92
2022-09-25T05:31:07.627Z,56.90
2022-09-25T05:33:35.923Z,61.45
2022-09-25T05:36:05.365Z,61.05
2022-09-25T05:38:34.934Z,63.60
2022-09-25T05:41:09.767Z,64.05
2022-09-25T05:43:43.231Z,62.17
2022-09-25T05:46:11.881Z,55.25
2022-09-25T05:48:40.230Z,60.22
2022-09-25T05:51:08.603Z,64.95
2022-09-25T05:53:37.091Z,59.97
2022-09-25T05:56:05.748Z,58.92
2022-09-25T05:58:35.261Z,47.63
2022-09-25T06:01:05.696Z,43.67
2022-09-25T06:03:33.693Z,44.97
2022-09-25T06:06:02.154Z,41.88
2022-09-25T06:08:35.616Z,41.03
2022-09-25T06:11:04.563Z,42.80
2022-09-25T06:13:34.749Z,40.95
2022-09-25T06:16:03.404Z,37.10
2022-09-25T06:18:31.427Z,40.55
2022-09-25T06:21:02.838Z,39.65
2022-09-25T06:23:31.371Z,40.72
2022-09-25T06:26:09.394Z,36.70
2022-09-25T06:28:39.602Z,39.38
2022-09-25T06:31:07.495Z,35.20
2022-09-25T06:33:35.668Z,34.28
2022-09-25T06:36:05.865Z,34.05
2022-09-25T06:38:34.409Z,36.92
2022-09-25T06:41:02.242Z,32.58
2022-09-25T06:43:31.202Z,29.40
2022-09-25T06:46:03.308Z,31.23
2022-09-25T06:48:31.944Z,30.23
2022-09-25T06:51:00.755Z,26.65
2022-09-25T06:53:28.896Z,22.90
2022-09-25T06:56:00.171Z,23.58
2022-09-25T06:58:30.763Z,25.20
2022-09-25T07:00:59.105Z,26.08
2022-09-25T07:03:45.082Z,26.48
2022-09-25T07:06:22.590Z,24.48
2022-09-25T07:08:51.242Z,26.60
2022-09-25T07:11:22.696Z,24.63
2022-09-25T07:13:52.360Z,24.60
2022-09-25T07:16:22.800Z,24.50
2022-09-25T07:18:53.410Z,27.27
2022-09-25T07:21:24.447Z,29.45
2022-09-25T07:23:53.050Z,27.90
2022-09-25T07:26:23.578Z,29.50
2022-09-25T07:29:00.599Z,27.58
2022-09-25T07:31:31.017Z,24.20
2022-09-25T07:34:02.788Z,28.15
2022-09-25T07:36:30.591Z,26.65
2022-09-25T07:38:58.185Z,24.52
2022-09-25T07:41:26.092Z,23.40
2022-09-25T07:44:17.678Z,22.45
2022-09-25T07:46:46.299Z,19.77
2022-09-25T07:49:14.431Z,22.17
2022-09-25T07:51:42.081Z,21.27
2022-09-25T07:54:09.926Z,19.48
2022-09-25T07:56:38.451Z,19.17
2022-09-25T07:59:06.469Z,17.60
2022-09-25T08:01:37.207Z,18.50
2022-09-25T08:04:08.734Z,19.85
2022-09-25T08:06:36.597Z,17.77
2022-09-25T08:09:10.095Z,16.88
2022-09-25T08:11:39.013Z,14.70
2022-09-25T08:14:06.646Z,15.45
2022-09-25T08:16:34.332Z,16.35
2022-09-25T08:19:02.120Z,11.73
2022-09-25T08:21:29.716Z,13.68
2022-09-25T08:23:57.399Z,17.30
2022-09-25T08:26:25.394Z,15.95
2022-09-25T08:28:52.949Z,15.13
2022-09-25T08:31:21.644Z,16.05
2022-09-25T08:33:50.590Z,13.05
2022-09-25T08:36:18.731Z,15.43
2022-09-25T08:38:46.740Z,15.20
2022-09-25T08:41:44.835Z,15.48
2022-09-25T08:44:34.474Z,14.55
2022-09-25T08:47:24.923Z,14.25
2022-09-25T08:50:12.398Z,12.63
2022-09-25T08:52:47.529Z,14.82
2022-09-25T08:55:45.720Z,12.60
2022-09-25T08:58:26.569Z,13.50
2022-09-25T09:00:58.946Z,13.85
2022-09-25T09:03:30.519Z,13.73
2022-09-25T09:06:07.184Z,16.58
2022-09-25T09:08:38.633Z,14.05
2022-09-25T09:11:13.914Z,17.27
2022-09-25T09:13:47.179Z,13.50
2022-09-25T09:16:23.951Z,16.83
2022-09-25T09:18:52.462Z,14.13
2022-09-25T09:21:25.597Z,11.65
2022-09-25T09:24:07.008Z,9.95
2022-09-25T09:26:58.225Z,10.57
2022-09-25T09:29:49.670Z,11.73
2022-09-25T09:32:26.527Z,10.73
2022-09-25T09:35:23.988Z,9.32
2022-09-25T09:38:10.763Z,13.35
2022-09-25T09:41:27.666Z,7.53
2022-09-25T09:44:12.592Z,7.80
2022-09-25T09:46:43.080Z,10.82
2022-09-25T09:49:33.255Z,6.97
2022-09-25T09:52:17.396Z,7.70
2022-09-25T09:54:52.341Z,9.50
2022-09-25T09:57:25.437Z,9.38
2022-09-25T10:00:13.689Z,7.90
2022-09-25T10:03:22.014Z,9.95
2022-09-25T10:06:01.671Z,9.02
2022-09-25T10:08:29.846Z,7.88
2022-09-25T10:10:59.178Z,7.43
2022-09-25T10:13:37.787Z,8.27
2022-09-25T10:16:22.021Z,12.38
2022-09-25T10:19:20.002Z,6.55
2022-09-25T10:22:05.132Z,7.93
2022-09-25T10:25:03.551Z,10.48
2022-09-25T10:27:37.436Z,8.98
2022-09-25T10:30:11.420Z,9.70
2022-09-25T10:33:00.912Z,11.25
2022-09-25T10:35:43.684Z,8.32
2022-09-25T10:38:22.183Z,8.40
2022-09-25T10:41:03.146Z,8.23
2022-09-25T10:43:31.514Z,11.10
2022-09-25T10:46:53.966Z,9.30
2022-09-25T10:49:46.516Z,9.07
2022-09-25T10:52:19.572Z,10.30
2022-09-25T10:54:47.954Z,7.75
2022-09-25T10:57:38.402Z,8.25
2022-09-25T11:00:20.919Z,8.45
2022-09-25T11:02:53.815Z,8.70
2022-09-25T11:05:26.762Z,9.27
2022-09-25T11:07:57.865Z,8.77
2022-09-25T11:10:30.957Z,8.05
2022-09-25T11:13:00.307Z,7.18
2022-09-25T11:15:28.718Z,7.10
2022-09-25T11:17:58.587Z,7.38
2022-09-25T11:20:30.606Z,9.07
2022-09-25T11:23:20.592Z,10.55
2022-09-25T11:26:05.898Z,9.35
2022-09-25T11:28:44.570Z,9.63
2022-09-25T11:31:55.141Z,9.57
2022-09-25T11:35:04.569Z,8.23
2022-09-25T11:37:43.126Z,9.70
2022-09-25T11:40:29.490Z,8.90
2022-09-25T11:43:06.854Z,9.15
2022-09-25T11:45:59.548Z,10.60
2022-09-25T11:48:35.105Z,10.88
2022-09-25T11:51:39.281Z,9.55
2022-09-25T11:54:33.648Z,10.65
2022-09-25T11:59:51.715Z,10.63
2022-09-25T12:02:40.900Z,11.77
2022-09-25T12:05:35.336Z,12.68
2022-09-25T12:08:32.357Z,10.52
2022-09-25T12:11:10.254Z,9.32
2022-09-25T12:14:01.487Z,12.85
2022-09-25T12:16:52.374Z,9.70
2022-09-25T12:19:34.612Z,6.97
2022-09-25T12:22:26.937Z,6.97
2022-09-25T12:25:01.299Z,10.10
2022-09-25T12:27:40.352Z,7.40
2022-09-25T12:30:15.945Z,8.50
2022-09-25T12:33:32.598Z,10.98
2022-09-25T12:36:23.109Z,7.55
2022-09-25T12:39:04.856Z,9.10
2022-09-25T12:41:41.539Z,9.13
2022-09-25T12:44:26.615Z,7.60
2022-09-25T12:47:14.119Z,7.35
2022-09-25T12:49:49.182Z,8.65
2022-09-25T12:52:24.241Z,8.38
2022-09-25T12:55:16.398Z,8.80
2022-09-25T12:57:59.579Z,8.15
2022-09-25T13:00:32.461Z,7.88
2022-09-25T13:03:11.514Z,8.38
2022-09-25T13:06:07.337Z,7.13
2022-09-25T13:08:53.619Z,8.10
2022-09-25T13:11:45.500Z,10.88
2022-09-25T13:14:28.592Z,7.90
2022-09-25T13:16:57.394Z,10.23
2022-09-25T13:19:28.750Z,9.27
2022-09-25T13:22:04.210Z,9.70
2022-09-25T13:24:43.172Z,10.13
2022-09-25T13:27:22.289Z,9.45
2022-09-25T13:30:00.711Z,11.02
2022-09-25T13:32:34.761Z,9.88
2022-09-25T13:35:19.350Z,10.05
2022-09-25T13:37:49.312Z,9.45
2022-09-25T13:40:41.931Z,10.40
2022-09-25T13:43:24.857Z,10.55
2022-09-25T13:46:31.456Z,10.30
2022-09-25T13:49:35.189Z,10.57
2022-09-25T13:52:03.542Z,9.02
2022-09-25T13:54:34.038Z,10.07
2022-09-25T13:57:01.593Z,9.57
2022-09-25T13:59:37.406Z,12.35
2022-09-25T14:02:37.200Z,12.18
2022-09-25T14:05:05.907Z,10.75
2022-09-25T14:07:35.317Z,11.80
2022-09-25T14:10:04.053Z,11.82
2022-09-25T14:12:46.676Z,10.70
2022-09-25T14:15:21.386Z,9.30
2022-09-25T14:17:52.860Z,12.07
2022-09-25T14:20:32.568Z,9.98
2022-09-25T14:23:04.786Z,9.18
2022-09-25T14:25:38.985Z,9.32
2022-09-25T14:28:23.687Z,10.70
2022-09-25T14:30:55.829Z,9.70
2022-09-25T14:33:47.336Z,10.77
2022-09-25T14:36:40.396Z,9.38
2022-09-25T14:39:20.028Z,9.93
2022-09-25T14:42:17.214Z,8.07
2022-09-25T14:45:06.264Z,9.82
2022-09-25T14:47:43.521Z,11.65
2022-09-25T14:50:23.927Z,11.55
2022-09-25T14:53:00.244Z,12.73
2022-09-25T14:55:35.613Z,11.35
2022-09-25T14:58:09.168Z,14.50
2022-09-25T15:00:50.361Z,12.95
2022-09-25T15:03:21.183Z,11.70
2022-09-25T15:05:50.234Z,12.70
2022-09-25T15:08:38.729Z,13.10
2022-09-25T15:11:19.619Z,14.75
2022-09-25T15:13:47.450Z,11.82
2022-09-25T15:16:45.685Z,13.80
2022-09-25T15:19:25.837Z,12.23
2022-09-25T15:21:54.257Z,17.30
2022-09-25T15:24:27.756Z,23.63
2022-09-25T15:27:06.237Z,25.48
2022-09-25T15:29:42.343Z,25.38
2022-09-25T15:32:23.023Z,23.38
2022-09-25T15:34:50.982Z,23.13
2022-09-25T15:37:31.351Z,23.73
2022-09-25T15:40:29.224Z,20.05
2022-09-25T15:43:00.046Z,19.17
2022-09-25T15:46:00.139Z,17.30
2022-09-25T15:48:36.676Z,18.30
2022-09-25T15:51:15.271Z,18.23
2022-09-25T15:54:13.424Z,17.42
2022-09-25T15:56:53.052Z,20.02
2022-09-25T15:59:29.167Z,33.22
2022-09-25T16:02:15.937Z,35.47
2022-09-25T16:04:50.002Z,44.55
2022-09-25T16:07:36.128Z,39.10
2022-09-25T16:10:31.053Z,39.38
2022-09-25T16:15:26.677Z,34.75
2022-09-25T16:18:01.409Z,28.08
2022-09-25T16:20:39.223Z,35.53
2022-09-25T16:23:28.085Z,33.72
2022-09-25T16:25:58.485Z,37.60
2022-09-25T16:28:30.337Z,31.13
2022-09-25T16:31:09.326Z,35.97
2022-09-25T16:33:47.417Z,34.03
2022-09-25T16:36:17.850Z,32.15
2022-09-25T16:39:08.014Z,32.47
2022-09-25T16:41:46.656Z,35.30
2022-09-25T16:44:28.711Z,39.35
2022-09-25T16:46:56.502Z,36.92
2022-09-25T16:49:24.962Z,37.35
2022-09-25T16:51:54.870Z,43.63
2022-09-25T16:54:31.742Z,37.08
2022-09-25T16:57:02.300Z,36.47
2022-09-25T16:59:30.812Z,34.25
2022-09-25T17:02:02.035Z,31.15
2022-09-25T17:04:31.574Z,35.30
2022-09-25T17:06:59.504Z,43.70
2022-09-25T17:09:28.788Z,37.55
2022-09-25T17:12:05.132Z,36.08
2022-09-25T17:14:34.078Z,38.45
2022-09-25T17:17:02.103Z,35.67
2022-09-25T17:19:29.960Z,36.28
2022-09-25T17:21:58.107Z,39.33
2022-09-25T17:24:27.365Z,40.88
2022-09-25T17:26:55.354Z,43.33
2022-09-25T17:29:23.706Z,56.58
2022-09-25T17:31:51.488Z,58.08
2022-09-25T17:34:28.632Z,59.28
2022-09-25T17:36:57.926Z,75.32
2022-09-25T17:39:25.484Z,72.70
2022-09-25T17:41:53.133Z,70.88
2022-09-25T17:44:23.586Z,71.22
2022-09-25T17:46:55.635Z,61.83
2022-09-25T17:49:24.047Z,64.85
2022-09-25T17:51:52.570Z,59.47
2022-09-25T17:54:20.751Z,56.75
2022-09-25T17:56:48.991Z,55.13
2022-09-25T17:59:16.669Z,54.83
2022-09-25T18:01:44.568Z,52.47
2022-09-25T18:04:30.637Z,65.78
2022-09-25T18:06:58.465Z,62.25
2022-09-25T18:09:26.406Z,58.63
2022-09-25T18:11:54.643Z,49.20
2022-09-25T18:14:22.443Z,48.72
2022-09-25T18:16:50.314Z,53.58
2022-09-25T18:19:39.103Z,57.63
2022-09-25T18:22:20.586Z,63.75
2022-09-25T18:24:56.932Z,68.15
2022-09-25T18:27:32.675Z,84.53
2022-09-25T18:30:00.905Z,85.93
2022-09-25T18:32:31.358Z,81.72
2022-09-25T18:34:59.483Z,80.25
2022-09-25T18:37:27.155Z,74.38
2022-09-25T18:39:54.945Z,82.65
2022-09-25T18:42:22.571Z,76.28
2022-09-25T18:44:50.390Z,83.55
2022-09-25T18:47:18.194Z,77.88
2022-09-25T18:49:45.949Z,79.57
2022-09-25T18:52:13.584Z,79.93
2022-09-25T18:54:42.331Z,80.05
2022-09-25T18:57:12.013Z,75.07
2022-09-25T18:59:40.253Z,71.20
2022-09-25T19:02:22.838Z,78.43
2022-09-25T19:04:54.986Z,77.30
2022-09-25T19:07:24.597Z,73.93
2022-09-25T19:09:52.960Z,75.00
2022-09-25T19:12:21.753Z,79.35
2022-09-25T19:14:49.696Z,74.68
2022-09-25T19:17:18.650Z,84.85
2022-09-25T19:19:46.410Z,75.13
2022-09-25T19:22:19.582Z,76.35
2022-09-25T19:24:48.836Z,74.77
2022-09-25T19:27:17.813Z,74.45
2022-09-25T19:29:45.842Z,72.35
2022-09-25T19:32:16.793Z,76.63
2022-09-25T19:34:44.989Z,74.90
2022-09-25T19:37:13.019Z,71.32
2022-09-25T19:39:59.588Z,69.72
2022-09-25T19:42:37.348Z,71.95
2022-09-25T19:45:06.103Z,71.13
2022-09-25T19:47:34.058Z,73.78
2022-09-25T19:50:02.289Z,68.53
2022-09-25T19:52:30.263Z,67.25
2022-09-25T19:54:58.031Z,68.63
2022-09-25T19:57:25.749Z,71.30
2022-09-25T19:59:53.539Z,69.88
2022-09-25T20:02:21.274Z,75.30
2022-09-25T20:04:49.152Z,66.70
2022-09-25T20:07:17.495Z,68.60
2022-09-25T20:09:45.275Z,70.20
2022-09-25T20:12:12.886Z,66.57
2022-09-25T20:14:40.954Z,63.95
2022-09-25T20:17:10.471Z,63.83
2022-09-25T20:19:38.336Z,65.53
2022-09-25T20:22:06.130Z,64.93
2022-09-25T20:24:34.011Z,58.40
2022-09-25T20:27:01.820Z,61.38
2022-09-25T20:29:29.780Z,61.58
2022-09-25T20:31:57.437Z,61.55
2022-09-25T20:34:25.038Z,55.92
2022-09-25T20:36:53.063Z,51.60
2022-09-25T20:39:21.801Z,50.53
2022-09-25T20:41:50.459Z,56.90
2022-09-25T20:44:18.241Z,56.00
2022-09-25T20:46:45.948Z,54.97
2022-09-25T20:49:13.681Z,49.67
2022-09-25T20:51:42.207Z,51.10
2022-09-25T20:54:10.870Z,51.88
2022-09-25T20:56:43.863Z,56.17
2022-09-25T20:59:12.372Z,53.40
2022-09-25T21:01:41.828Z,54.75
2022-09-25T21:04:10.077Z,52.42
2022-09-25T21:06:40.227Z,52.10
2022-09-25T21:09:29.055Z,55.42
2022-09-25T21:11:57.242Z,55.08
2022-09-25T21:14:27.930Z,54.13
2022-09-25T21:16:56.414Z,58.53
2022-09-25T21:19:24.476Z,54.95
2022-09-25T21:21:52.115Z,53.30
2022-09-25T21:24:21.172Z,55.60
2022-09-25T21:26:50.105Z,53.92
2022-09-25T21:29:18.419Z,57.40
2022-09-25T21:31:49.720Z,57.30
2022-09-25T21:34:19.261Z,60.92
2022-09-25T21:36:47.441Z,51.92
2022-09-25T21:39:15.655Z,54.58
2022-09-25T21:41:43.517Z,59.05
2022-09-25T21:44:19.154Z,57.70
2022-09-25T21:46:46.984Z,59.65
2022-09-25T21:49:17.928Z,62.72
2022-09-25T21:51:46.993Z,59.88
2022-09-25T21:54:16.576Z,62.42
2022-09-25T21:56:44.609Z,59.50
2022-09-25T21:59:13.242Z,59.40
2022-09-25T22:01:42.099Z,60.38
2022-09-25T22:04:13.375Z,62.00
2022-09-25T22:06:47.098Z,59.65
2022-09-25T22:09:21.798Z,64.43
2022-09-25T22:11:51.153Z,68.32
2022-09-25T22:14:20.640Z,59.28
2022-09-25T22:16:51.416Z,68.57
2022-09-25T22:19:21.194Z,65.90
2022-09-25T22:21:51.735Z,66.63
2022-09-25T22:24:20.062Z,66.32
2022-09-25T22:26:49.367Z,68.85
2022-09-25T22:29:17.830Z,62.47
2022-09-25T22:31:45.571Z,66.55
2022-09-25T22:34:19.976Z,72.15
2022-09-25T22:36:49.029Z,72.03
2022-09-25T22:39:19.760Z,66.57
2022-09-25T22:41:51.109Z,75.60
2022-09-25T22:44:19.801Z,70.80
2022-09-25T22:46:48.504Z,73.28
2022-09-25T22:49:16.247Z,72.40
2022-09-25T22:51:44.270Z,79.25
2022-09-25T22:54:15.933Z,79.88
2022-09-25T22:56:44.241Z,85.40
2022-09-25T22:59:16.264Z,83.85
2022-09-25T23:01:54.862Z,88.07
2022-09-25T23:04:24.628Z,85.78
2022-09-25T23:06:53.067Z,94.22
2022-09-25T23:09:24.985Z,91.22
2022-09-25T23:11:54.668Z,85.35
2022-09-25T23:14:28.976Z,94.03
2022-09-25T23:16:57.878Z,84.07
2022-09-25T23:19:25.706Z,83.30
2022-09-25T23:21:54.333Z,77.78
2022-09-25T23:24:23.223Z,82.97
2022-09-25T23:26:51.575Z,76.00
2022-09-25T23:29:21.449Z,75.80
2022-09-25T23:31:50.318Z,77.90
2022-09-25T23:34:18.312Z,70.13
2022-09-25T23:36:46.286Z,70.63
2022-09-25T23:39:19.300Z,68.32
2022-09-25T23:41:47.621Z,63.25
2022-09-25T23:44:15.447Z,82.38
2022-09-25T23:46:44.170Z,73.75
2022-09-25T23:49:13.522Z,75.13
2022-09-25T23:51:41.611Z,71.85
2022-09-25T23:54:10.761Z,68.10
2022-09-25T23:56:41.046Z,72.13
2022-09-25T23:59:11.804Z,78.32
